Nearby METAR Reports

 

KOJC - Olathe/Executive, Kansas, USA
Distance from station: N 14mi, 23km
Updated: Fri, 03-Dec-2021 11:53am CST
Clear
Clear
 Wind from NNW
Wind: NNW 8 mph , 13 km/h
Temperature: 61°F , 16°C
Dew Point: 37°F , 3°C
Humidity: 42%
Barometer: 29.93 inHg , 1013.5 hPa
Clouds: Clear
Visibility: 10 miles , 16 km
2021/12/03 17:53 KOJC 031753Z 34007KT 10SM CLR 16/03 A2993 RMK AO2 SLP132 T01610033 10172 20072 50003
KIXD - Olathe/Industria, Kansas, USA
Distance from station: NW 15mi, 25km
Updated: Fri, 03-Dec-2021 12:53pm CST
Clear
Clear
 Wind from N
Wind: N 8 mph , 13 km/h
Temperature: 63°F , 17°C
Dew Point: 39°F , 4°C
Humidity: 42%
Barometer: 29.93 inHg , 1013.5 hPa
Clouds: Clear
Visibility: 10 miles , 16 km
2021/12/03 18:53 KIXD 031853Z 35007KT 10SM CLR 17/04 A2993 RMK AO2 SLP131 T01720044
 
KLXT - Lees Summit Muni, Missouri, USA
Distance from station: NE 28mi, 46km
Updated: Fri, 03-Dec-2021 12:53pm CST
Clear
Clear
 Wind from NNW
Wind: NNW 8 mph , 13 km/h
Temperature: 64°F , 18°C
Dew Point: 39°F , 4°C
Humidity: 40%
Barometer: 29.91 inHg , 1012.9 hPa
Clouds: Clear
Visibility: 10 miles , 16 km
2021/12/03 18:53 KLXT 031853Z AUTO 34007KT 10SM CLR 18/04 A2991 RMK AO2 SLP127 T01780044
KMKC - Kansas City/Dntn, Missouri, USA
Distance from station: N 33mi, 53km
Updated: Fri, 03-Dec-2021 12:54pm CST
Clear
Clear
 Wind from N
Wind: N 5 mph , 7 km/h
Temperature: 64°F , 18°C
Dew Point: 39°F , 4°C
Humidity: 40%
Barometer: 29.90 inHg , 1012.5 hPa
Clouds: Clear
Visibility: 10 miles , 16 km
2021/12/03 18:54 KMKC 031854Z 36004KT 10SM CLR 18/04 A2990 RMK AO2 SLP125 T01780039
 
KLWC - Lawrence, Kansas, USA
Distance from station: NW 38mi, 61km
Updated: Fri, 03-Dec-2021 12:52pm CST
Clear
Clear
 Wind from NNW
Wind: NNW 9 mph , 15 km/h
Temperature: 66°F , 19°C
Dew Point: 41°F , 5°C
Humidity: 40%
Barometer: 29.92 inHg , 1013.2 hPa
Clouds: Clear
Visibility: 10 miles , 16 km
2021/12/03 18:52 KLWC 031852Z AUTO 34008KT 10SM CLR 19/05 A2992 RMK AO1 SLP132 T01940050
KFOE - Topeka/Forbes, Kansas, USA
Distance from station: WNW 43mi, 70km
Updated: Fri, 03-Dec-2021 12:53pm CST
Clear
Clear
 Wind from N
Wind: N 9 mph , 15 km/h
Temperature: 64°F , 18°C
Dew Point: 41°F , 5°C
Humidity: 43%
Barometer: 29.93 inHg , 1013.5 hPa
Clouds: Clear
Visibility: 10 miles , 16 km
2021/12/03 18:53 KFOE 031853Z 36008KT 10SM CLR 18/05 A2993 RMK AO2 SLP135 T01780050
 
KMCI - Kansas City/Intl, Missouri, USA
Distance from station: N 45mi, 73km
Updated: Fri, 03-Dec-2021 12:53pm CST
Few Clouds
Few Clouds
 Wind from N
Wind: N 8 mph , 13 km/h
Temperature: 64°F , 18°C
Dew Point: 39°F , 4°C
Humidity: 40%
Barometer: 29.92 inHg , 1013.2 hPa
Clouds: Few Clouds
Visibility: 10 miles , 16 km
Cloud details: Few Clouds 20000 ft
2021/12/03 18:53 KMCI 031853Z 36007KT 10SM R19R/5500VP6000FT FEW200 18/04 A2992 RMK AO2 SLP128 T01830039
KRCM - Warrensburg Skyh, Missouri, USA
Distance from station: ENE 49mi, 80km
Updated: Fri, 03-Dec-2021 12:55pm CST
Clear
Clear
 Wind from WNW
Wind: WNW 5 mph , 7 km/h
Temperature: 68°F , 20°C
Dew Point: 43°F , 6°C
Humidity: 40%
Barometer: 29.90 inHg , 1012.5 hPa
Clouds: Clear
Visibility: 10 miles , 16 km
2021/12/03 18:55 KRCM 031855Z AUTO 30004KT 10SM CLR 20/06 A2990 RMK AO2